TUI9EX EDDV-LPFR
Flight info
| Callsign | TUI9EX |
|---|---|
| Flight time | N/A |
| Altitude | 38000 |
| Route | VAXEV2G VAXEV Z718 MAWEQ Y348 DOMEG DCT ABAMI DCT NVO DCT RASCA DCT FAMEN/N0448F370 DCT DISAK DCT ARKIP DCT ARNAV DCT LMG/N0454F390 DCT UVELI DCT OSMOB DCT VAVIX DCT BTZ DCT URUNA DCT SSN DCT VRA DCT NEA L14 ADINO DCT ELVAR DCT ALAGU |
| Aircraft | B38M/M-SDE1FGHILORVWXY/HB1 |
Departure
| Time | 2026-05-06 16:41 |
|---|---|
| Airport | Hannover Airport (EDDV) |
Arrival
| Time | N/A |
|---|---|
| Airport | Faro - Gago Coutinho International Airport (LPFR) |
| Time | Latitude | Longitude | Altitude | Speed | Heading |
|---|---|---|---|---|---|
| 2026-05-06 16:22 | 52.45743 | 9.69702 | 181 ft | 0 kts | 354° |
| 2026-05-06 16:32 | 52.45724 | 9.69705 | 181 ft | 4 kts | 352° |
| 2026-05-06 16:32 | 52.45698 | 9.69714 | 181 ft | 4 kts | 340° |
| 2026-05-06 16:32 | 52.45677 | 9.69735 | 181 ft | 4 kts | 297° |
| 2026-05-06 16:32 | 52.45674 | 9.69769 | 181 ft | 4 kts | 268° |
| 2026-05-06 16:33 | 52.45674 | 9.69781 | 181 ft | 2 kts | 271° |
| 2026-05-06 16:35 | 52.45674 | 9.69779 | 181 ft | 1 kts | 271° |
| 2026-05-06 16:35 | 52.45675 | 9.69718 | 181 ft | 9 kts | 271° |
| 2026-05-06 16:35 | 52.45677 | 9.69599 | 181 ft | 11 kts | 272° |
| 2026-05-06 16:35 | 52.45704 | 9.69500 | 181 ft | 9 kts | 324° |
| 2026-05-06 16:36 | 52.45748 | 9.69437 | 181 ft | 9 kts | 300° |
| 2026-05-06 16:36 | 52.45759 | 9.69313 | 181 ft | 15 kts | 272° |
| 2026-05-06 16:36 | 52.45739 | 9.69171 | 181 ft | 10 kts | 211° |
| 2026-05-06 16:36 | 52.45674 | 9.69144 | 181 ft | 11 kts | 187° |
| 2026-05-06 16:37 | 52.45624 | 9.69103 | 181 ft | 3 kts | 253° |
| 2026-05-06 16:37 | 52.45625 | 9.69019 | 181 ft | 14 kts | 272° |
| 2026-05-06 16:37 | 52.45631 | 9.68816 | 181 ft | 20 kts | 272° |
| 2026-05-06 16:37 | 52.45638 | 9.68597 | 181 ft | 19 kts | 272° |
| 2026-05-06 16:38 | 52.45642 | 9.68394 | 181 ft | 17 kts | 271° |
| 2026-05-06 16:38 | 52.45648 | 9.68207 | 181 ft | 16 kts | 274° |
| 2026-05-06 16:38 | 52.45653 | 9.68035 | 181 ft | 14 kts | 273° |
| 2026-05-06 16:38 | 52.45656 | 9.67878 | 181 ft | 13 kts | 271° |
| 2026-05-06 16:39 | 52.45635 | 9.67744 | 181 ft | 12 kts | 229° |
| 2026-05-06 16:39 | 52.45568 | 9.67703 | 183 ft | 9 kts | 187° |
| 2026-05-06 16:39 | 52.45526 | 9.67698 | 194 ft | 4 kts | 181° |
| 2026-05-06 16:39 | 52.45502 | 9.67716 | 192 ft | 5 kts | 128° |
| 2026-05-06 16:40 | 52.45495 | 9.67807 | 185 ft | 12 kts | 92° |
| 2026-05-06 16:40 | 52.45484 | 9.68224 | 183 ft | 77 kts | 92° |
| 2026-05-06 16:40 | 52.45448 | 9.69536 | 186 ft | 150 kts | 92° |
| 2026-05-06 16:40 | 52.45385 | 9.71513 | 541 ft | 186 kts | 94° |
| 2026-05-06 16:41 | 52.45299 | 9.73649 | 1501 ft | 191 kts | 95° |
| 2026-05-06 16:41 | 52.45303 | 9.75878 | 2284 ft | 206 kts | 82° |
| 2026-05-06 16:41 | 52.45933 | 9.78094 | 2919 ft | 222 kts | 46° |
| 2026-05-06 16:41 | 52.47293 | 9.79376 | 3747 ft | 236 kts | 14° |
| 2026-05-06 16:42 | 52.48917 | 9.79212 | 4670 ft | 240 kts | 339° |
| 2026-05-06 16:42 | 52.50239 | 9.77598 | 5664 ft | 239 kts | 310° |
| 2026-05-06 16:42 | 52.51185 | 9.75250 | 6448 ft | 245 kts | 296° |
| 2026-05-06 16:42 | 52.51904 | 9.72690 | 7261 ft | 258 kts | 293° |
| 2026-05-06 16:43 | 52.52659 | 9.69910 | 7923 ft | 274 kts | 294° |
| 2026-05-06 16:43 | 52.53478 | 9.67058 | 8937 ft | 276 kts | 295° |
| 2026-05-06 16:43 | 52.54328 | 9.64190 | 9880 ft | 282 kts | 295° |
| 2026-05-06 16:43 | 52.55218 | 9.61237 | 10545 ft | 297 kts | 296° |
| 2026-05-06 16:44 | 52.56176 | 9.58096 | 11001 ft | 318 kts | 296° |
| 2026-05-06 16:44 | 52.57203 | 9.54752 | 11441 ft | 337 kts | 296° |
| 2026-05-06 16:44 | 52.58285 | 9.51245 | 12019 ft | 351 kts | 296° |
| 2026-05-06 16:44 | 52.59404 | 9.47617 | 12707 ft | 358 kts | 295° |
| 2026-05-06 16:45 | 52.60380 | 9.43845 | 13506 ft | 361 kts | 283° |
| 2026-05-06 16:45 | 52.60568 | 9.39749 | 14210 ft | 361 kts | 262° |
| 2026-05-06 16:45 | 52.59868 | 9.35787 | 14861 ft | 364 kts | 243° |
| 2026-05-06 16:45 | 52.58388 | 9.32392 | 15509 ft | 369 kts | 225° |
| 2026-05-06 16:46 | 52.56394 | 9.29690 | 16154 ft | 373 kts | 219° |
| 2026-05-06 16:46 | 52.54332 | 9.27058 | 16779 ft | 378 kts | 218° |
| 2026-05-06 16:46 | 52.52227 | 9.24412 | 17417 ft | 382 kts | 218° |
| 2026-05-06 16:46 | 52.50128 | 9.21801 | 18031 ft | 386 kts | 218° |
| 2026-05-06 16:47 | 52.47972 | 9.19135 | 18584 ft | 390 kts | 218° |
| 2026-05-06 16:47 | 52.45792 | 9.16448 | 19156 ft | 392 kts | 218° |
| 2026-05-06 16:47 | 52.43608 | 9.13760 | 19726 ft | 394 kts | 218° |
| 2026-05-06 16:47 | 52.41413 | 9.11026 | 20272 ft | 396 kts | 221° |
| 2026-05-06 16:48 | 52.39628 | 9.07632 | 20873 ft | 394 kts | 240° |
| 2026-05-06 16:48 | 52.38448 | 9.03571 | 21403 ft | 397 kts | 247° |
| 2026-05-06 16:48 | 52.37379 | 8.99391 | 21927 ft | 399 kts | 248° |
| 2026-05-06 16:48 | 52.36334 | 8.95197 | 22495 ft | 401 kts | 248° |
| 2026-05-06 16:49 | 52.35278 | 8.90896 | 22977 ft | 405 kts | 249° |
| 2026-05-06 16:49 | 52.34244 | 8.86649 | 23481 ft | 407 kts | 249° |
| 2026-05-06 16:49 | 52.33198 | 8.82339 | 23934 ft | 409 kts | 249° |
| 2026-05-06 16:49 | 52.32144 | 8.78001 | 24399 ft | 411 kts | 249° |
| 2026-05-06 16:50 | 52.31088 | 8.73656 | 24841 ft | 412 kts | 249° |
| 2026-05-06 16:50 | 52.30012 | 8.69240 | 25299 ft | 414 kts | 249° |
| 2026-05-06 16:50 | 52.28958 | 8.64918 | 25724 ft | 415 kts | 249° |
| 2026-05-06 16:50 | 52.27869 | 8.60543 | 26137 ft | 417 kts | 245° |
| 2026-05-06 16:51 | 52.26272 | 8.56589 | 26559 ft | 420 kts | 230° |
| 2026-05-06 16:51 | 52.24331 | 8.53014 | 26964 ft | 421 kts | 230° |
| 2026-05-06 16:51 | 52.22380 | 8.49427 | 27347 ft | 424 kts | 230° |
| 2026-05-06 16:51 | 52.20406 | 8.45844 | 27711 ft | 426 kts | 229° |
| 2026-05-06 16:52 | 52.18408 | 8.42252 | 28053 ft | 428 kts | 229° |
| 2026-05-06 16:52 | 52.16401 | 8.38657 | 28469 ft | 429 kts | 229° |
| 2026-05-06 16:52 | 52.14386 | 8.35057 | 28810 ft | 432 kts | 229° |
| 2026-05-06 16:52 | 52.12353 | 8.31431 | 29211 ft | 432 kts | 229° |
| 2026-05-06 16:53 | 52.10328 | 8.27824 | 29743 ft | 430 kts | 229° |
| 2026-05-06 16:53 | 52.08317 | 8.24247 | 30263 ft | 427 kts | 229° |
| 2026-05-06 16:53 | 52.06317 | 8.20695 | 30754 ft | 424 kts | 229° |
| 2026-05-06 16:53 | 52.04333 | 8.17177 | 31234 ft | 421 kts | 229° |
| 2026-05-06 16:54 | 52.02383 | 8.13723 | 31694 ft | 418 kts | 229° |
| 2026-05-06 16:54 | 52.00424 | 8.10258 | 32147 ft | 415 kts | 229° |
| 2026-05-06 16:54 | 51.98478 | 8.06822 | 32606 ft | 413 kts | 229° |
| 2026-05-06 16:54 | 51.96542 | 8.03407 | 33061 ft | 410 kts | 229° |
| 2026-05-06 16:55 | 51.94615 | 8.00012 | 33534 ft | 407 kts | 229° |
| 2026-05-06 16:55 | 51.92706 | 7.96656 | 33997 ft | 404 kts | 229° |
| 2026-05-06 16:55 | 51.90804 | 7.93315 | 34306 ft | 403 kts | 229° |
| 2026-05-06 16:55 | 51.88896 | 7.89969 | 34517 ft | 405 kts | 229° |
| 2026-05-06 16:56 | 51.86982 | 7.86615 | 34753 ft | 406 kts | 229° |
| 2026-05-06 16:56 | 51.85065 | 7.83262 | 34997 ft | 407 kts | 229° |
| 2026-05-06 16:56 | 51.83138 | 7.79895 | 35245 ft | 408 kts | 228° |
| 2026-05-06 16:56 | 51.81210 | 7.76532 | 35468 ft | 409 kts | 228° |
| 2026-05-06 16:57 | 51.79271 | 7.73153 | 35680 ft | 410 kts | 228° |
| 2026-05-06 16:57 | 51.77324 | 7.69765 | 35855 ft | 411 kts | 227° |
| 2026-05-06 16:57 | 51.75373 | 7.66373 | 36050 ft | 413 kts | 227° |
| 2026-05-06 16:57 | 51.73419 | 7.62980 | 36252 ft | 414 kts | 227° |
| 2026-05-06 16:58 | 51.71439 | 7.59593 | 36440 ft | 415 kts | 224° |
| 2026-05-06 16:58 | 51.69143 | 7.56818 | 36688 ft | 416 kts | 214° |
| 2026-05-06 16:58 | 51.66746 | 7.54202 | 36815 ft | 418 kts | 216° |
| 2026-05-06 16:58 | 51.64338 | 7.51560 | 36994 ft | 419 kts | 216° |
| 2026-05-06 16:59 | 51.61925 | 7.48939 | 37174 ft | 420 kts | 215° |
| 2026-05-06 16:59 | 51.59496 | 7.46313 | 37365 ft | 420 kts | 215° |
| 2026-05-06 16:59 | 51.57067 | 7.43692 | 37536 ft | 421 kts | 215° |
| 2026-05-06 16:59 | 51.54630 | 7.41068 | 37728 ft | 422 kts | 215° |
| 2026-05-06 17:00 | 51.52221 | 7.38477 | 37854 ft | 422 kts | 215° |
| 2026-05-06 17:00 | 51.47335 | 7.33231 | 37858 ft | 421 kts | 215° |
| 2026-05-06 17:01 | 51.42459 | 7.27995 | 37865 ft | 421 kts | 215° |
| 2026-05-06 17:01 | 51.37608 | 7.22727 | 37860 ft | 422 kts | 215° |
| 2026-05-06 17:02 | 51.32766 | 7.17488 | 37886 ft | 420 kts | 215° |
| 2026-05-06 17:02 | 51.27908 | 7.12246 | 37876 ft | 422 kts | 215° |
| 2026-05-06 17:03 | 51.23034 | 7.07001 | 37873 ft | 422 kts | 215° |
| 2026-05-06 17:03 | 51.18154 | 7.01762 | 37877 ft | 423 kts | 214° |
| 2026-05-06 17:04 | 51.13306 | 6.96572 | 37881 ft | 423 kts | 214° |
| 2026-05-06 17:04 | 51.08434 | 6.91369 | 37871 ft | 420 kts | 214° |
| 2026-05-06 17:05 | 51.03578 | 6.86197 | 37862 ft | 420 kts | 214° |
| 2026-05-06 17:05 | 50.98713 | 6.81028 | 37862 ft | 420 kts | 214° |
| 2026-05-06 17:06 | 50.93852 | 6.75877 | 37858 ft | 420 kts | 214° |
| 2026-05-06 17:06 | 50.88985 | 6.70732 | 37858 ft | 421 kts | 214° |
| 2026-05-06 17:07 | 50.84125 | 6.65568 | 37854 ft | 420 kts | 218° |
| 2026-05-06 17:07 | 50.82070 | 6.62308 | 37841 ft | 418 kts | 234° |
| 2026-05-06 17:07 | 50.80493 | 6.58433 | 37860 ft | 420 kts | 236° |
| 2026-05-06 17:08 | 50.77416 | 6.50567 | 37870 ft | 425 kts | 238° |
| 2026-05-06 17:08 | 50.74363 | 6.42519 | 37854 ft | 426 kts | 238° |
| 2026-05-06 17:09 | 50.71331 | 6.34474 | 37867 ft | 427 kts | 238° |
| 2026-05-06 17:09 | 50.68307 | 6.26467 | 37862 ft | 426 kts | 237° |
| 2026-05-06 17:10 | 50.65268 | 6.18442 | 37869 ft | 426 kts | 238° |
| 2026-05-06 17:10 | 50.62225 | 6.10434 | 37864 ft | 426 kts | 237° |
| 2026-05-06 17:11 | 50.59174 | 6.02426 | 37866 ft | 427 kts | 238° |
| 2026-05-06 17:11 | 50.56100 | 5.94386 | 37877 ft | 429 kts | 238° |
| 2026-05-06 17:12 | 50.53019 | 5.86351 | 37881 ft | 429 kts | 237° |
| 2026-05-06 17:12 | 50.49931 | 5.78322 | 37876 ft | 429 kts | 237° |
| 2026-05-06 17:13 | 50.46831 | 5.70286 | 37889 ft | 430 kts | 237° |
| 2026-05-06 17:13 | 50.43724 | 5.62260 | 37884 ft | 430 kts | 237° |
| 2026-05-06 17:14 | 50.40611 | 5.54241 | 37899 ft | 430 kts | 237° |
| 2026-05-06 17:14 | 50.37487 | 5.46219 | 37890 ft | 432 kts | 237° |
| 2026-05-06 17:15 | 50.34349 | 5.38186 | 37889 ft | 432 kts | 237° |
| 2026-05-06 17:15 | 50.31739 | 5.31524 | 37882 ft | 432 kts | 237° |
| 2026-05-06 17:16 | 50.28076 | 5.22203 | 37888 ft | 433 kts | 237° |
| 2026-05-06 17:16 | 50.25424 | 5.15474 | 37885 ft | 434 kts | 237° |
| 2026-05-06 17:17 | 50.22275 | 5.07508 | 37889 ft | 434 kts | 237° |
| 2026-05-06 17:17 | 50.19098 | 4.99489 | 37884 ft | 435 kts | 237° |
| 2026-05-06 17:18 | 50.15915 | 4.91479 | 37886 ft | 435 kts | 237° |
| 2026-05-06 17:18 | 50.12308 | 4.83965 | 37909 ft | 433 kts | 229° |
| 2026-05-06 17:19 | 50.08429 | 4.76762 | 37881 ft | 433 kts | 229° |
| 2026-05-06 17:19 | 50.04534 | 4.69581 | 37884 ft | 434 kts | 229° |
| 2026-05-06 17:20 | 50.00632 | 4.62408 | 37891 ft | 434 kts | 229° |
| 2026-05-06 17:20 | 49.96597 | 4.55432 | 37878 ft | 432 kts | 220° |
| 2026-05-06 17:21 | 49.92134 | 4.49215 | 37879 ft | 435 kts | 221° |
| 2026-05-06 17:21 | 49.87622 | 4.42957 | 37891 ft | 436 kts | 221° |
| 2026-05-06 17:22 | 49.83095 | 4.36699 | 37893 ft | 436 kts | 221° |
| 2026-05-06 17:22 | 49.78563 | 4.30452 | 37886 ft | 436 kts | 221° |
| 2026-05-06 17:23 | 49.74027 | 4.24215 | 37894 ft | 436 kts | 221° |
| 2026-05-06 17:23 | 49.69485 | 4.17986 | 37888 ft | 436 kts | 221° |
| 2026-05-06 17:24 | 49.64939 | 4.11769 | 37890 ft | 437 kts | 220° |
| 2026-05-06 17:24 | 49.60383 | 4.05554 | 37894 ft | 437 kts | 220° |
| 2026-05-06 17:25 | 49.55822 | 3.99347 | 37901 ft | 437 kts | 220° |
| 2026-05-06 17:25 | 49.51282 | 3.93186 | 37895 ft | 438 kts | 220° |
| 2026-05-06 17:26 | 49.46714 | 3.87002 | 37899 ft | 438 kts | 220° |
| 2026-05-06 17:26 | 49.42136 | 3.80821 | 37896 ft | 439 kts | 220° |
| 2026-05-06 17:27 | 49.37551 | 3.74646 | 37901 ft | 439 kts | 220° |
| 2026-05-06 17:27 | 49.32954 | 3.68472 | 37901 ft | 439 kts | 220° |
| 2026-05-06 17:28 | 49.28359 | 3.62316 | 37897 ft | 439 kts | 220° |
| 2026-05-06 17:28 | 49.23761 | 3.56171 | 37896 ft | 439 kts | 220° |
| 2026-05-06 17:29 | 49.19145 | 3.50019 | 37909 ft | 441 kts | 220° |
| 2026-05-06 17:29 | 49.14518 | 3.43868 | 37905 ft | 441 kts | 220° |
| 2026-05-06 17:30 | 49.09884 | 3.37723 | 37909 ft | 441 kts | 220° |
| 2026-05-06 17:30 | 49.05274 | 3.31626 | 37904 ft | 441 kts | 220° |
| 2026-05-06 17:31 | 49.00595 | 3.25453 | 37893 ft | 446 kts | 221° |
| 2026-05-06 17:31 | 48.95924 | 3.19306 | 37910 ft | 448 kts | 221° |
| 2026-05-06 17:32 | 48.91205 | 3.13114 | 37906 ft | 447 kts | 221° |
| 2026-05-06 17:32 | 48.86490 | 3.06942 | 37910 ft | 447 kts | 221° |
| 2026-05-06 17:33 | 48.81762 | 3.00768 | 37914 ft | 448 kts | 221° |
| 2026-05-06 17:33 | 48.77034 | 2.94611 | 37910 ft | 448 kts | 221° |
| 2026-05-06 17:34 | 48.72295 | 2.88456 | 37906 ft | 448 kts | 221° |
| 2026-05-06 17:34 | 48.67555 | 2.82315 | 37910 ft | 448 kts | 221° |
| 2026-05-06 17:35 | 48.62813 | 2.76186 | 37912 ft | 448 kts | 221° |
| 2026-05-06 17:35 | 48.58091 | 2.70099 | 37913 ft | 449 kts | 221° |
| 2026-05-06 17:36 | 48.50955 | 2.60932 | 37910 ft | 449 kts | 221° |
| 2026-05-06 17:36 | 48.46196 | 2.54835 | 37909 ft | 448 kts | 221° |
| 2026-05-06 17:37 | 48.41436 | 2.48754 | 37915 ft | 449 kts | 221° |
| 2026-05-06 17:37 | 48.36662 | 2.42671 | 37914 ft | 450 kts | 221° |
| 2026-05-06 17:38 | 48.31883 | 2.36597 | 37910 ft | 450 kts | 221° |
| 2026-05-06 17:38 | 48.27109 | 2.30541 | 37913 ft | 450 kts | 220° |
| 2026-05-06 17:39 | 48.22336 | 2.24500 | 37915 ft | 450 kts | 220° |
| 2026-05-06 17:39 | 48.17581 | 2.18498 | 37915 ft | 450 kts | 220° |
| 2026-05-06 17:40 | 48.12315 | 2.13575 | 37903 ft | 449 kts | 196° |
| 2026-05-06 17:40 | 48.06133 | 2.11914 | 37911 ft | 454 kts | 189° |
| 2026-05-06 17:41 | 47.99876 | 2.10602 | 37939 ft | 454 kts | 188° |
| 2026-05-06 17:41 | 47.93603 | 2.09384 | 37940 ft | 454 kts | 188° |
| 2026-05-06 17:42 | 47.87332 | 2.08188 | 37937 ft | 454 kts | 188° |
| 2026-05-06 17:42 | 47.81103 | 2.07003 | 37912 ft | 454 kts | 188° |
| 2026-05-06 17:43 | 47.74822 | 2.05811 | 37910 ft | 455 kts | 188° |
| 2026-05-06 17:43 | 47.68546 | 2.04623 | 37915 ft | 455 kts | 188° |
| 2026-05-06 17:44 | 47.62338 | 2.02988 | 37891 ft | 451 kts | 202° |
| 2026-05-06 17:44 | 47.56482 | 1.99611 | 37897 ft | 452 kts | 202° |
| 2026-05-06 17:45 | 47.50612 | 1.96251 | 37919 ft | 453 kts | 202° |
| 2026-05-06 17:45 | 47.44745 | 1.92863 | 37927 ft | 452 kts | 202° |
| 2026-05-06 17:46 | 47.38879 | 1.89480 | 37928 ft | 453 kts | 202° |
| 2026-05-06 17:46 | 47.33002 | 1.86099 | 37941 ft | 452 kts | 202° |
| 2026-05-06 17:47 | 47.27136 | 1.82731 | 37933 ft | 452 kts | 202° |
| 2026-05-06 17:47 | 47.21266 | 1.79372 | 37934 ft | 452 kts | 202° |
| 2026-05-06 17:48 | 47.15427 | 1.76078 | 37935 ft | 452 kts | 202° |
| 2026-05-06 17:48 | 47.09545 | 1.72765 | 37934 ft | 452 kts | 202° |
| 2026-05-06 17:49 | 47.03674 | 1.69465 | 37940 ft | 452 kts | 202° |
| 2026-05-06 17:49 | 46.97796 | 1.66169 | 37934 ft | 452 kts | 202° |
| 2026-05-06 17:50 | 46.91918 | 1.62880 | 37942 ft | 452 kts | 202° |
| 2026-05-06 17:50 | 46.86038 | 1.59599 | 37940 ft | 452 kts | 202° |
| 2026-05-06 17:51 | 46.80152 | 1.56321 | 37943 ft | 452 kts | 202° |
| 2026-05-06 17:51 | 46.74300 | 1.53071 | 37934 ft | 452 kts | 202° |
| 2026-05-06 17:52 | 46.68414 | 1.49809 | 37939 ft | 452 kts | 202° |
| 2026-05-06 17:52 | 46.62525 | 1.46553 | 37945 ft | 452 kts | 202° |
| 2026-05-06 17:53 | 46.56654 | 1.43314 | 37932 ft | 452 kts | 202° |
| 2026-05-06 17:53 | 46.50765 | 1.40073 | 37929 ft | 452 kts | 202° |
| 2026-05-06 17:54 | 46.44888 | 1.36846 | 37927 ft | 452 kts | 202° |
| 2026-05-06 17:54 | 46.39004 | 1.33623 | 37928 ft | 452 kts | 202° |
| 2026-05-06 17:55 | 46.33121 | 1.30407 | 37935 ft | 452 kts | 202° |
| 2026-05-06 17:55 | 46.27240 | 1.27201 | 37936 ft | 451 kts | 202° |
| 2026-05-06 17:56 | 46.21356 | 1.24000 | 37934 ft | 451 kts | 202° |
| 2026-05-06 17:56 | 46.15473 | 1.20806 | 37909 ft | 451 kts | 202° |
| 2026-05-06 17:57 | 46.09628 | 1.17641 | 37916 ft | 452 kts | 202° |
| 2026-05-06 17:57 | 46.03740 | 1.14460 | 37915 ft | 452 kts | 202° |
| 2026-05-06 17:58 | 45.97836 | 1.11278 | 37911 ft | 452 kts | 202° |
| 2026-05-06 17:58 | 45.91941 | 1.08106 | 37911 ft | 452 kts | 202° |
| 2026-05-06 17:59 | 45.86049 | 1.04942 | 37912 ft | 452 kts | 202° |
| 2026-05-06 17:59 | 45.80468 | 1.00995 | 37898 ft | 444 kts | 221° |
| 2026-05-06 18:00 | 45.75660 | 0.95369 | 37879 ft | 447 kts | 221° |
| 2026-05-06 18:00 | 45.70863 | 0.89691 | 37916 ft | 447 kts | 221° |
| 2026-05-06 18:01 | 45.66086 | 0.83994 | 37914 ft | 447 kts | 221° |
| 2026-05-06 18:01 | 45.61301 | 0.78295 | 37913 ft | 447 kts | 221° |
| 2026-05-06 18:02 | 45.56543 | 0.72638 | 37900 ft | 448 kts | 221° |
| 2026-05-06 18:02 | 45.51757 | 0.66964 | 37914 ft | 447 kts | 221° |
| 2026-05-06 18:03 | 45.46966 | 0.61295 | 37913 ft | 447 kts | 221° |
| 2026-05-06 18:03 | 45.42174 | 0.55639 | 37916 ft | 447 kts | 221° |
| 2026-05-06 18:04 | 45.37377 | 0.49988 | 37913 ft | 447 kts | 221° |
| 2026-05-06 18:04 | 45.32578 | 0.44349 | 37919 ft | 447 kts | 221° |
| 2026-05-06 18:05 | 45.27782 | 0.38726 | 37919 ft | 447 kts | 221° |
| 2026-05-06 18:05 | 45.23795 | 0.34060 | 37925 ft | 448 kts | 221° |
| 2026-05-06 18:06 | 45.18197 | 0.27526 | 37932 ft | 448 kts | 221° |
| 2026-05-06 18:06 | 45.13392 | 0.21930 | 37938 ft | 447 kts | 221° |
| 2026-05-06 18:07 | 45.09446 | 0.17344 | 37940 ft | 447 kts | 221° |
| 2026-05-06 18:07 | 45.04637 | 0.11765 | 37951 ft | 447 kts | 221° |
| 2026-05-06 18:08 | 44.99821 | 0.06195 | 37951 ft | 447 kts | 221° |
| 2026-05-06 18:08 | 44.95016 | 0.00648 | 37953 ft | 446 kts | 221° |
| 2026-05-06 18:09 | 44.90214 | -0.04884 | 37958 ft | 446 kts | 221° |
| 2026-05-06 18:09 | 44.85394 | -0.10424 | 37955 ft | 446 kts | 221° |
| 2026-05-06 18:10 | 44.80608 | -0.15912 | 37954 ft | 446 kts | 221° |
| 2026-05-06 18:10 | 44.75786 | -0.21431 | 37961 ft | 446 kts | 221° |
| 2026-05-06 18:11 | 44.70961 | -0.26939 | 37964 ft | 446 kts | 221° |
| 2026-05-06 18:11 | 44.66137 | -0.32436 | 37968 ft | 446 kts | 221° |
| 2026-05-06 18:12 | 44.61060 | -0.37396 | 37975 ft | 447 kts | 216° |
| 2026-05-06 18:12 | 44.55932 | -0.42326 | 37968 ft | 446 kts | 217° |
| 2026-05-06 18:13 | 44.50812 | -0.47273 | 37974 ft | 446 kts | 217° |
| 2026-05-06 18:13 | 44.45688 | -0.52218 | 37976 ft | 446 kts | 217° |
| 2026-05-06 18:14 | 44.40604 | -0.57113 | 37964 ft | 446 kts | 217° |
| 2026-05-06 18:14 | 44.35500 | -0.62018 | 37981 ft | 445 kts | 217° |
| 2026-05-06 18:15 | 44.30399 | -0.66908 | 37982 ft | 445 kts | 217° |
| 2026-05-06 18:15 | 44.25379 | -0.71946 | 37991 ft | 444 kts | 218° |
| 2026-05-06 18:16 | 44.20393 | -0.77046 | 37991 ft | 444 kts | 218° |
| 2026-05-06 18:16 | 44.15409 | -0.82121 | 37993 ft | 444 kts | 218° |
| 2026-05-06 18:17 | 44.10418 | -0.87192 | 37994 ft | 444 kts | 218° |
| 2026-05-06 18:17 | 44.05453 | -0.92225 | 38000 ft | 444 kts | 218° |
| 2026-05-06 18:18 | 44.00454 | -0.97282 | 37994 ft | 443 kts | 218° |
| 2026-05-06 18:18 | 43.95476 | -1.02307 | 37999 ft | 442 kts | 218° |
| 2026-05-06 18:19 | 43.90493 | -1.07326 | 38001 ft | 442 kts | 218° |
| 2026-05-06 18:19 | 43.85508 | -1.12337 | 37997 ft | 442 kts | 218° |
| 2026-05-06 18:20 | 43.80558 | -1.17303 | 37987 ft | 442 kts | 218° |
| 2026-05-06 18:20 | 43.75582 | -1.22284 | 37996 ft | 441 kts | 218° |
| 2026-05-06 18:21 | 43.70595 | -1.27266 | 37998 ft | 441 kts | 218° |
| 2026-05-06 18:21 | 43.65617 | -1.32227 | 37999 ft | 441 kts | 218° |
| 2026-05-06 18:22 | 43.60664 | -1.37155 | 38001 ft | 441 kts | 218° |
| 2026-05-06 18:22 | 43.55684 | -1.42098 | 38017 ft | 440 kts | 218° |
| 2026-05-06 18:23 | 43.50718 | -1.47019 | 38020 ft | 440 kts | 218° |
| 2026-05-06 18:23 | 43.46140 | -1.52490 | 38004 ft | 432 kts | 237° |
| 2026-05-06 18:24 | 43.42708 | -1.59322 | 38003 ft | 435 kts | 237° |
| 2026-05-06 18:24 | 43.39309 | -1.66218 | 38018 ft | 434 kts | 237° |
| 2026-05-06 18:25 | 43.35945 | -1.73117 | 38020 ft | 434 kts | 238° |
| 2026-05-06 18:25 | 43.32615 | -1.79967 | 38019 ft | 434 kts | 237° |
| 2026-05-06 18:26 | 43.29046 | -1.86653 | 38050 ft | 435 kts | 234° |
| 2026-05-06 18:26 | 43.25387 | -1.93262 | 38029 ft | 435 kts | 234° |
| 2026-05-06 18:27 | 43.21734 | -1.99884 | 38023 ft | 435 kts | 234° |
| 2026-05-06 18:27 | 43.18079 | -2.06500 | 38018 ft | 434 kts | 234° |